Time;durP1;ratioP1;P1;durP2;ratioP2;P2;SDS_P1;SDS_P2;PMS_P1;PMS_P2;Temp;Humidity;BMP_temperature;BMP_pressure;BME280_temperature;BME280_humidity;BME280_pressure;Samples;Min_cycle;Max_cycle;Signal;HPM_P1;HPM_P2
2022/01/29 00:01:52;;;;;;;8.85;5.35;;;4.30;58.50;;;;;;5112615;28;20184;-67
2022/01/29 00:04:19;;;;;;;9.43;4.50;;;4.30;58.70;;;;;;5112794;28;20662;-67
2022/01/29 00:06:46;;;;;;;6.95;5.10;;;4.30;59.00;;;;;;5112240;28;20192;-67
2022/01/29 00:09:15;;;;;;;10.73;4.90;;;4.30;59.20;;;;;;5112881;28;20617;-67
2022/01/29 00:11:45;;;;;;;7.20;4.13;;;4.20;59.10;;;;;;5112472;28;20180;-67
2022/01/29 00:14:12;;;;;;;7.38;4.50;;;4.20;59.10;;;;;;5112189;28;20180;-67
2022/01/29 00:16:41;;;;;;;8.77;5.18;;;4.20;59.10;;;;;;5112645;28;20256;-67
2022/01/29 00:19:09;;;;;;;7.15;4.65;;;4.20;59.10;;;;;;5111728;28;20678;-67
2022/01/29 00:21:36;;;;;;;6.60;4.30;;;4.20;59.40;;;;;;5112658;28;20192;-67
2022/01/29 00:24:03;;;;;;;6.90;3.92;;;4.20;59.50;;;;;;5112398;28;20187;-67
2022/01/29 00:26:30;;;;;;;5.88;4.05;;;4.20;59.60;;;;;;5112427;28;20215;-67
2022/01/29 00:29:04;;;;;;;6.75;3.65;;;4.10;59.70;;;;;;5112123;28;20189;-68
2022/01/29 00:31:32;;;;;;;8.23;4.25;;;4.10;59.80;;;;;;5112569;28;20192;-67
2022/01/29 00:33:59;;;;;;;11.48;4.65;;;4.10;60.00;;;;;;5111821;28;20211;-68
2022/01/29 00:36:26;;;;;;;6.55;4.35;;;4.10;60.00;;;;;;5112621;28;20200;-67
2022/01/29 00:38:53;;;;;;;9.07;4.40;;;4.10;59.80;;;;;;5112009;28;20231;-67
2022/01/29 00:41:20;;;;;;;8.98;3.80;;;4.00;60.00;;;;;;5092013;28;20246;-67
2022/01/29 00:43:48;;;;;;;11.20;4.15;;;3.90;60.80;;;;;;5104690;28;20184;-67
2022/01/29 00:46:16;;;;;;;9.95;4.30;;;3.80;61.40;;;;;;5112667;28;20283;-67
2022/01/29 00:48:43;;;;;;;6.70;3.35;;;3.70;61.30;;;;;;5112149;28;20184;-67
2022/01/29 00:51:10;;;;;;;7.70;3.83;;;3.70;61.50;;;;;;5112373;28;20192;-67
2022/01/29 00:53:38;;;;;;;7.72;4.03;;;3.70;61.70;;;;;;5111875;28;20197;-67
2022/01/29 00:56:07;;;;;;;5.93;3.60;;;3.70;61.80;;;;;;5112305;28;20368;-67
2022/01/29 00:58:34;;;;;;;7.35;4.65;;;3.70;61.80;;;;;;5111964;28;20681;-67
2022/01/29 01:01:02;;;;;;;5.38;3.60;;;3.60;61.80;;;;;;5112078;28;20635;-67
2022/01/29 01:03:30;;;;;;;7.35;3.95;;;3.60;62.00;;;;;;5113208;28;20216;-71
2022/01/29 01:05:58;;;;;;;6.50;4.28;;;3.50;62.10;;;;;;5116014;28;20204;-67
2022/01/29 01:08:25;;;;;;;9.20;4.18;;;3.40;62.30;;;;;;5115865;28;20199;-67
2022/01/29 01:10:52;;;;;;;8.10;3.70;;;3.20;62.80;;;;;;5116080;28;20659;-67
2022/01/29 01:13:19;;;;;;;5.50;3.50;;;3.20;63.30;;;;;;5115395;28;20211;-67
2022/01/29 01:15:46;;;;;;;11.82;5.28;;;3.10;63.70;;;;;;5115782;28;20196;-67
2022/01/29 01:18:14;;;;;;;8.10;4.35;;;3.00;63.70;;;;;;5115196;28;20261;-67
2022/01/29 01:20:42;;;;;;;8.15;4.15;;;3.00;63.80;;;;;;5115757;28;20189;-67
2022/01/29 01:23:10;;;;;;;6.55;3.75;;;3.10;64.00;;;;;;5115438;28;20188;-67
2022/01/29 01:25:37;;;;;;;7.15;4.28;;;3.10;64.50;;;;;;5115548;28;20195;-67
2022/01/29 01:28:04;;;;;;;8.27;4.88;;;3.00;64.90;;;;;;5115030;28;20212;-67
2022/01/29 01:30:32;;;;;;;6.40;4.38;;;3.10;65.00;;;;;;5115480;28;20207;-67
2022/01/29 01:33:01;;;;;;;7.97;5.13;;;3.20;65.10;;;;;;5114931;28;20659;-67
2022/01/29 01:35:33;;;;;;;6.18;3.78;;;3.20;64.80;;;;;;5115543;28;20184;-68
2022/01/29 01:38:10;;;;;;;10.60;4.95;;;3.30;64.70;;;;;;5114995;28;20216;-67
2022/01/29 01:40:39;;;;;;;7.15;4.28;;;3.40;64.40;;;;;;5114990;28;20188;-67
2022/01/29 01:43:07;;;;;;;7.45;4.55;;;3.40;64.40;;;;;;5115238;28;20275;-68
2022/01/29 01:45:34;;;;;;;10.82;4.88;;;3.50;64.40;;;;;;5114941;28;20184;-67
2022/01/29 01:48:04;;;;;;;9.13;4.97;;;3.50;64.30;;;;;;5115044;28;20670;-67
2022/01/29 01:50:32;;;;;;;5.95;3.33;;;3.50;64.00;;;;;;5115449;28;20196;-67
2022/01/29 01:53:01;;;;;;;8.88;4.05;;;3.50;63.90;;;;;;5114748;28;20193;-67
2022/01/29 01:55:28;;;;;;;5.28;3.42;;;3.50;63.70;;;;;;5115265;28;20196;-67
2022/01/29 01:57:57;;;;;;;5.95;3.40;;;3.50;63.80;;;;;;5114797;28;20216;-67
2022/01/29 02:00:25;;;;;;;9.35;4.10;;;3.60;63.80;;;;;;5114742;28;20212;-67
2022/01/29 02:02:52;;;;;;;7.65;3.33;;;3.60;63.40;;;;;;5115266;28;20188;-67
2022/01/29 02:05:20;;;;;;;5.93;3.65;;;3.60;63.20;;;;;;5114244;28;20189;-67
2022/01/29 02:07:48;;;;;;;7.75;3.03;;;3.50;63.30;;;;;;5114636;28;20291;-67
2022/01/29 02:10:18;;;;;;;4.57;3.50;;;3.60;63.20;;;;;;5114848;28;20181;-67
2022/01/29 02:12:50;;;;;;;6.47;3.55;;;3.60;63.20;;;;;;5114704;28;20192;-67
2022/01/29 02:15:18;;;;;;;5.05;3.28;;;3.60;63.20;;;;;;5114066;28;20185;-67
2022/01/29 02:17:46;;;;;;;4.75;3.33;;;3.70;63.20;;;;;;5114617;28;20189;-67
2022/01/29 02:20:15;;;;;;;5.25;4.05;;;3.70;63.00;;;;;;5114278;28;20191;-67
2022/01/29 02:22:45;;;;;;;8.68;4.82;;;3.60;63.40;;;;;;5114734;28;20228;-67
2022/01/29 02:25:33;;;;;;;5.82;4.03;;;3.60;63.90;;;;;;5114174;28;20203;-67
2022/01/29 02:28:03;;;;;;;8.77;3.83;;;3.60;63.80;;;;;;5114371;28;20220;-67
2022/01/29 02:30:33;;;;;;;5.95;4.55;;;3.60;63.80;;;;;;5114145;28;20184;-68
2022/01/29 02:33:02;;;;;;;8.43;4.78;;;3.60;64.00;;;;;;5114463;28;20192;-68
2022/01/29 02:35:30;;;;;;;6.55;3.95;;;3.60;63.90;;;;;;5113883;28;20651;-67
2022/01/29 02:37:59;;;;;;;6.72;3.75;;;3.60;63.90;;;;;;5113804;28;20210;-67
2022/01/29 02:40:27;;;;;;;7.03;4.57;;;3.60;64.30;;;;;;5114265;28;20199;-67
2022/01/29 02:42:56;;;;;;;8.68;4.60;;;3.60;64.50;;;;;;5113614;28;20212;-68
2022/01/29 02:45:23;;;;;;;9.25;4.70;;;3.50;64.40;;;;;;5113809;28;20651;-67
2022/01/29 02:47:50;;;;;;;8.98;4.70;;;3.50;64.50;;;;;;5113543;28;20199;-67
2022/01/29 02:50:17;;;;;;;7.10;4.85;;;3.50;64.70;;;;;;5114184;28;20192;-67
2022/01/29 02:52:44;;;;;;;6.60;4.05;;;3.50;64.80;;;;;;5113586;28;20196;-67
2022/01/29 02:55:13;;;;;;;9.77;3.53;;;3.50;65.10;;;;;;5113835;28;20188;-67
2022/01/29 02:57:40;;;;;;;8.75;4.30;;;3.40;65.20;;;;;;5113296;28;20643;-67
2022/01/29 03:00:15;;;;;;;5.47;3.65;;;3.50;65.40;;;;;;5113658;28;20291;-67
2022/01/29 03:02:42;;;;;;;8.70;4.28;;;3.50;65.40;;;;;;5113679;28;20252;-67
2022/01/29 03:05:10;;;;;;;7.63;4.32;;;3.50;65.70;;;;;;5113134;28;20188;-67
2022/01/29 03:07:38;;;;;;;5.85;4.45;;;3.40;65.70;;;;;;5113717;28;20215;-67
2022/01/29 03:10:07;;;;;;;9.63;4.20;;;3.40;65.80;;;;;;5113353;28;20293;-67
2022/01/29 03:12:37;;;;;;;10.23;4.15;;;3.40;66.20;;;;;;5113788;28;20275;-67
2022/01/29 03:15:06;;;;;;;7.22;4.35;;;3.30;66.20;;;;;;5112968;28;20234;-67
2022/01/29 03:17:33;;;;;;;10.40;4.50;;;3.30;66.60;;;;;;5113335;28;20200;-67
2022/01/29 03:20:00;;;;;;;5.68;3.75;;;3.10;66.20;;;;;;5113039;28;20226;-67
2022/01/29 03:22:27;;;;;;;7.35;4.32;;;3.10;66.50;;;;;;5113473;28;20674;-67
2022/01/29 03:24:54;;;;;;;8.88;4.63;;;3.10;66.80;;;;;;5113026;28;20184;-67
2022/01/29 03:27:22;;;;;;;9.98;4.70;;;3.10;66.70;;;;;;5112703;28;20231;-67
2022/01/29 03:29:50;;;;;;;7.40;4.10;;;3.10;66.80;;;;;;5113027;28;20184;-67
2022/01/29 03:32:17;;;;;;;8.05;4.88;;;3.20;66.90;;;;;;5112485;28;20199;-67
2022/01/29 03:34:45;;;;;;;7.53;5.05;;;3.10;66.70;;;;;;5112637;28;20654;-67
2022/01/29 03:37:12;;;;;;;8.80;5.47;;;3.10;67.00;;;;;;5112660;28;20188;-67
2022/01/29 03:39:41;;;;;;;10.00;5.70;;;3.10;67.30;;;;;;5113149;28;20242;-67
2022/01/29 03:42:12;;;;;;;7.60;4.78;;;3.00;67.80;;;;;;5112938;28;20226;-67
2022/01/29 03:44:39;;;;;;;8.60;5.53;;;2.90;68.00;;;;;;5113627;28;20623;-67
2022/01/29 03:47:08;;;;;;;13.68;5.50;;;2.90;68.10;;;;;;5112183;28;20192;-67
2022/01/29 03:49:36;;;;;;;5.70;3.50;;;2.80;68.30;;;;;;5112868;28;20538;-67
2022/01/29 03:52:03;;;;;;;8.82;4.95;;;2.70;68.40;;;;;;5112657;28;20200;-67
2022/01/29 03:54:30;;;;;;;8.57;3.97;;;2.70;68.80;;;;;;5113137;28;20193;-67
2022/01/29 03:56:57;;;;;;;6.32;4.07;;;2.70;68.70;;;;;;5112609;28;20188;-67
2022/01/29 03:59:25;;;;;;;8.70;3.92;;;2.70;68.50;;;;;;5112530;28;20227;-66
2022/01/29 04:01:58;;;;;;;11.38;4.45;;;2.70;68.70;;;;;;5112525;28;20295;-67
2022/01/29 04:04:26;;;;;;;6.22;3.75;;;2.60;69.00;;;;;;5113048;28;20540;-67
2022/01/29 04:06:54;;;;;;;4.95;3.45;;;2.60;69.20;;;;;;5112408;28;20207;-68
2022/01/29 04:09:22;;;;;;;7.07;4.00;;;2.70;69.40;;;;;;5112918;28;20199;-66
2022/01/29 04:11:49;;;;;;;10.35;3.80;;;2.70;68.90;;;;;;5112626;28;20187;-67
2022/01/29 04:14:19;;;;;;;6.10;3.65;;;2.60;69.40;;;;;;5113055;28;20189;-67
2022/01/29 04:16:46;;;;;;;8.27;3.95;;;2.60;69.30;;;;;;5112457;28;20257;-67
2022/01/29 04:19:13;;;;;;;5.75;3.63;;;2.70;69.50;;;;;;5112503;28;20227;-67
2022/01/29 04:21:42;;;;;;;7.88;4.90;;;2.70;69.50;;;;;;5112537;28;20674;-67
2022/01/29 04:24:09;;;;;;;6.93;4.32;;;2.70;69.50;;;;;;5112777;28;20607;-67
2022/01/29 04:26:37;;;;;;;7.70;5.20;;;2.70;69.60;;;;;;5111863;28;20208;-67
2022/01/29 04:29:07;;;;;;;9.73;4.95;;;2.70;69.90;;;;;;5112869;28;20196;-67
2022/01/29 04:31:41;;;;;;;5.75;3.63;;;2.70;69.90;;;;;;5112368;28;20190;-67
2022/01/29 04:34:09;;;;;;;9.63;4.30;;;2.80;69.90;;;;;;5112680;28;20703;-67
2022/01/29 04:36:36;;;;;;;6.68;4.78;;;2.80;70.10;;;;;;5111901;28;20187;-67
2022/01/29 04:39:05;;;;;;;8.10;4.32;;;2.80;69.80;;;;;;5114534;28;20690;-67
2022/01/29 04:41:32;;;;;;;8.35;5.22;;;2.70;70.30;;;;;;5116133;28;20196;-67
2022/01/29 04:43:59;;;;;;;6.97;4.68;;;2.70;70.40;;;;;;5116557;28;20750;-66
2022/01/29 04:46:27;;;;;;;6.85;4.28;;;2.70;70.40;;;;;;5116349;28;20188;-67
2022/01/29 04:48:54;;;;;;;10.10;4.57;;;2.70;70.40;;;;;;5116722;28;20192;-67
2022/01/29 04:51:21;;;;;;;7.82;5.10;;;2.70;70.60;;;;;;5116062;28;20276;-66
2022/01/29 04:53:49;;;;;;;8.77;5.43;;;2.70;70.50;;;;;;5116478;28;20763;-67
2022/01/29 04:56:17;;;;;;;8.32;5.40;;;2.60;70.90;;;;;;5116140;28;20225;-67
2022/01/29 04:58:45;;;;;;;6.47;3.80;;;2.60;71.10;;;;;;5116413;28;20208;-67
2022/01/29 05:01:12;;;;;;;8.18;5.25;;;2.60;71.10;;;;;;5115654;28;20195;-67
2022/01/29 05:03:39;;;;;;;8.93;4.53;;;2.60;71.60;;;;;;5116178;28;20666;-67
2022/01/29 05:06:09;;;;;;;6.88;4.93;;;2.60;71.70;;;;;;5116200;28;20188;-68
2022/01/29 05:08:37;;;;;;;7.72;4.13;;;2.60;71.70;;;;;;5115916;28;20189;-67
2022/01/29 05:11:05;;;;;;;7.85;4.20;;;2.60;71.60;;;;;;5116322;28;20196;-68
2022/01/29 05:13:37;;;;;;;7.20;4.40;;;2.60;71.20;;;;;;5115854;28;20184;-67
2022/01/29 05:16:30;;;;;;;6.60;3.90;;;2.60;71.20;;;;;;5116076;28;20199;-67
2022/01/29 05:27:11;;;;;;;8.40;4.05;;;2.60;70.00;;;;;;5098745;28;20215;-66
2022/01/29 05:29:40;;;;;;;5.85;3.25;;;2.60;70.30;;;;;;5115810;28;20250;-67
2022/01/29 05:32:09;;;;;;;7.25;3.97;;;2.70;69.90;;;;;;5115666;28;20195;-67
2022/01/29 05:34:36;;;;;;;7.60;3.38;;;2.80;69.80;;;;;;5115873;28;20545;-67
2022/01/29 05:37:04;;;;;;;6.30;3.63;;;2.80;68.10;;;;;;5115447;28;20180;-67
2022/01/29 05:39:32;;;;;;;5.75;4.55;;;2.80;67.10;;;;;;5115424;28;20285;-67
2022/01/29 05:42:00;;;;;;;3.80;2.50;;;2.90;67.50;;;;;;5115697;28;20192;-67
2022/01/29 05:44:27;;;;;;;8.52;4.38;;;2.80;65.00;;;;;;5115468;28;20191;-67
2022/01/29 05:46:56;;;;;;;5.55;2.90;;;2.90;64.70;;;;;;5115166;28;20523;-67
2022/01/29 05:49:24;;;;;;;4.57;2.10;;;2.90;63.30;;;;;;5114587;28;20197;-66
2022/01/29 05:51:52;;;;;;;3.95;2.17;;;2.90;58.90;;;;;;5115024;28;20181;-67
2022/01/29 05:54:19;;;;;;;6.40;2.55;;;3.00;57.50;;;;;;5115331;28;20188;-67
2022/01/29 05:56:47;;;;;;;4.40;2.10;;;3.10;57.50;;;;;;5114930;28;20227;-67
2022/01/29 05:59:14;;;;;;;4.13;1.60;;;3.20;57.00;;;;;;5115287;28;20269;-67
2022/01/29 06:01:42;;;;;;;3.35;1.70;;;3.20;54.10;;;;;;5115267;28;20196;-67
2022/01/29 06:04:10;;;;;;;3.40;1.42;;;3.30;53.30;;;;;;5114473;28;20189;-67
2022/01/29 06:06:38;;;;;;;2.22;1.30;;;3.40;53.50;;;;;;5115199;28;20727;-67
2022/01/29 06:09:05;;;;;;;3.15;1.73;;;3.50;52.70;;;;;;5115124;28;20227;-68
2022/01/29 06:11:33;;;;;;;2.25;1.10;;;3.60;52.20;;;;;;5102720;28;20228;-67
2022/01/29 06:14:00;;;;;;;2.10;1.10;;;3.60;49.50;;;;;;5114928;28;20288;-67
2022/01/29 06:16:28;;;;;;;2.67;1.10;;;3.70;49.60;;;;;;5114708;28;20271;-67
2022/01/29 06:18:55;;;;;;;4.05;1.65;;;3.80;49.00;;;;;;5115070;28;20543;-67
2022/01/29 06:21:24;;;;;;;2.92;1.40;;;3.80;47.80;;;;;;5114491;28;20233;-67
2022/01/29 06:23:51;;;;;;;1.73;0.80;;;3.90;48.00;;;;;;5115031;28;20516;-67
2022/01/29 06:26:19;;;;;;;5.38;1.52;;;3.90;47.30;;;;;;5114315;28;20215;-68
2022/01/29 06:28:46;;;;;;;2.58;1.30;;;4.00;48.40;;;;;;5114395;28;20651;-67
2022/01/29 06:31:13;;;;;;;2.50;1.52;;;4.00;48.40;;;;;;5114489;28;20189;-67
2022/01/29 06:33:40;;;;;;;5.90;1.92;;;4.00;48.90;;;;;;5114287;28;20188;-67
2022/01/29 06:36:08;;;;;;;3.33;2.00;;;4.10;48.50;;;;;;5114323;28;20192;-67
2022/01/29 06:38:37;;;;;;;3.42;1.33;;;4.10;48.50;;;;;;5114045;28;20271;-68
2022/01/29 06:41:04;;;;;;;2.50;1.40;;;4.30;45.70;;;;;;5114331;28;20262;-67
2022/01/29 06:43:31;;;;;;;2.40;1.20;;;4.30;45.90;;;;;;5114167;28;20218;-67
2022/01/29 06:45:58;;;;;;;2.25;1.00;;;4.30;46.90;;;;;;5114048;28;20232;-67
2022/01/29 06:48:25;;;;;;;3.25;1.33;;;4.40;46.10;;;;;;5114041;28;20187;-67
2022/01/29 06:50:52;;;;;;;5.53;1.88;;;4.40;46.80;;;;;;5113962;28;20674;-67
2022/01/29 06:53:20;;;;;;;2.88;1.55;;;4.50;48.00;;;;;;5113847;28;20647;-67
2022/01/29 06:55:48;;;;;;;3.47;1.48;;;4.50;49.00;;;;;;5113910;28;20184;-67
2022/01/29 06:58:15;;;;;;;5.50;1.95;;;4.50;49.80;;;;;;5114093;28;20257;-67
2022/01/29 07:00:43;;;;;;;8.77;2.03;;;4.60;49.50;;;;;;5112472;28;20219;-67
2022/01/29 07:03:10;;;;;;;4.82;2.05;;;4.60;47.90;;;;;;5113922;28;20189;-67
2022/01/29 07:05:37;;;;;;;6.93;1.90;;;4.60;48.40;;;;;;5113577;28;20636;-67
2022/01/29 07:08:05;;;;;;;15.73;3.20;;;4.60;48.80;;;;;;5114056;28;20192;-67
2022/01/29 07:10:32;;;;;;;3.92;2.45;;;4.70;49.70;;;;;;5113363;28;20675;-67
2022/01/29 07:13:01;;;;;;;5.68;1.98;;;4.70;49.10;;;;;;5113948;28;20188;-67
2022/01/29 07:15:28;;;;;;;26.70;20.25;;;4.70;49.00;;;;;;5113549;28;20187;-67
2022/01/29 07:17:55;;;;;;;9.57;5.50;;;4.70;48.80;;;;;;5113709;28;20275;-67
2022/01/29 07:20:22;;;;;;;9.90;5.07;;;4.70;49.30;;;;;;5113250;28;20674;-67
2022/01/29 07:22:49;;;;;;;11.88;6.18;;;4.70;48.90;;;;;;5113675;28;20260;-67
2022/01/29 07:25:16;;;;;;;14.93;5.45;;;4.60;48.10;;;;;;5113022;28;20667;-67
2022/01/29 07:27:44;;;;;;;9.32;5.75;;;4.60;48.20;;;;;;5112966;28;20220;-67
2022/01/29 07:30:13;;;;;;;12.65;8.98;;;4.70;48.20;;;;;;5113212;28;20188;-67
2022/01/29 07:32:44;;;;;;;16.70;11.05;;;4.70;48.40;;;;;;5113202;28;20195;-67
2022/01/29 07:35:11;;;;;;;11.32;7.78;;;4.70;48.90;;;;;;5113672;28;20195;-67
2022/01/29 07:37:39;;;;;;;9.07;4.65;;;4.70;48.60;;;;;;5112546;28;20275;-67
2022/01/29 07:40:07;;;;;;;7.00;4.65;;;4.70;48.80;;;;;;5113355;28;20307;-67
2022/01/29 07:42:35;;;;;;;7.80;5.47;;;4.70;47.70;;;;;;5112824;28;20186;-67
2022/01/29 07:45:02;;;;;;;11.52;5.65;;;4.70;47.90;;;;;;5113611;28;20193;-67
2022/01/29 07:47:33;;;;;;;9.88;4.18;;;4.70;47.10;;;;;;5113153;28;20547;-67
2022/01/29 07:50:00;;;;;;;7.45;4.35;;;4.60;46.30;;;;;;5113307;28;20196;-67
2022/01/29 07:52:27;;;;;;;4.75;2.45;;;4.70;45.20;;;;;;5112675;28;20200;-69
2022/01/29 07:54:54;;;;;;;9.07;4.57;;;4.70;44.80;;;;;;5113130;28;20195;-67
2022/01/29 07:57:21;;;;;;;7.43;4.10;;;4.80;44.70;;;;;;5112709;28;20261;-67
2022/01/29 07:59:49;;;;;;;18.13;4.28;;;4.80;44.50;;;;;;5113133;28;20637;-67
2022/01/29 08:02:16;;;;;;;6.30;4.07;;;4.80;44.50;;;;;;5112662;28;20188;-67
2022/01/29 08:04:45;;;;;;;12.48;6.20;;;4.90;44.40;;;;;;5113048;28;20196;-67
2022/01/29 08:07:12;;;;;;;5.90;2.30;;;5.00;44.90;;;;;;5112583;28;20238;-67
2022/01/29 08:09:39;;;;;;;7.88;2.45;;;5.00;43.30;;;;;;5112973;28;20184;-67
2022/01/29 08:12:07;;;;;;;2.95;1.70;;;5.10;41.80;;;;;;5112320;28;20216;-68
2022/01/29 08:14:34;;;;;;;3.13;1.60;;;5.10;42.90;;;;;;5113178;28;20283;-67
2022/01/29 08:17:02;;;;;;;4.55;2.80;;;5.20;42.50;;;;;;5112648;28;20181;-68
2022/01/29 08:19:29;;;;;;;4.43;3.00;;;5.20;41.00;;;;;;5112707;28;20195;-69
2022/01/29 08:21:58;;;;;;;7.50;3.97;;;5.20;40.60;;;;;;5112841;28;20271;-67
2022/01/29 08:24:25;;;;;;;2.92;1.25;;;5.30;41.80;;;;;;5112468;28;20202;-67
2022/01/29 08:26:52;;;;;;;2.63;0.90;;;5.30;39.90;;;;;;5112589;28;20221;-67
2022/01/29 08:29:19;;;;;;;6.32;2.53;;;5.40;39.00;;;;;;5112522;28;20213;-67
2022/01/29 08:31:46;;;;;;;6.35;2.83;;;5.60;37.50;;;;;;5111929;28;20188;-67
2022/01/29 08:34:14;;;;;;;5.18;2.90;;;5.60;39.10;;;;;;5111929;28;20192;-67
2022/01/29 08:36:41;;;;;;;5.55;3.03;;;5.70;37.90;;;;;;5112386;28;20185;-67
2022/01/29 08:39:09;;;;;;;5.35;3.17;;;5.80;37.90;;;;;;5112939;28;20188;-67
2022/01/29 08:41:37;;;;;;;4.07;2.15;;;5.90;37.20;;;;;;5111637;28;20268;-67
2022/01/29 08:44:05;;;;;;;5.43;3.15;;;5.90;37.50;;;;;;5112546;28;20196;-67
2022/01/29 08:46:32;;;;;;;4.53;2.28;;;6.00;37.00;;;;;;5112310;28;20264;-66
2022/01/29 08:48:59;;;;;;;3.75;1.30;;;6.10;37.00;;;;;;5112080;28;20228;-65
2022/01/29 08:51:27;;;;;;;3.38;1.33;;;6.20;36.40;;;;;;5111560;28;20280;-67
2022/01/29 08:53:54;;;;;;;6.45;1.00;;;6.30;36.70;;;;;;5112740;28;20199;-68
2022/01/29 08:56:23;;;;;;;1.73;0.73;;;6.50;34.80;;;;;;5111968;28;20245;-67
2022/01/29 08:58:50;;;;;;;7.72;2.33;;;6.60;35.10;;;;;;5112409;28;20192;-67
2022/01/29 09:01:17;;;;;;;5.00;1.85;;;6.70;34.10;;;;;;5112220;28;20227;-67
2022/01/29 09:03:45;;;;;;;6.03;3.30;;;6.80;34.60;;;;;;5112466;28;20734;-67
2022/01/29 09:06:13;;;;;;;7.22;3.78;;;6.90;33.60;;;;;;5112018;28;20200;-67
2022/01/29 09:08:45;;;;;;;8.73;5.97;;;7.00;33.70;;;;;;5112576;28;20288;-67
2022/01/29 09:11:12;;;;;;;5.05;3.13;;;7.10;33.80;;;;;;5111728;28;20188;-67
2022/01/29 09:13:41;;;;;;;3.42;2.50;;;7.10;32.70;;;;;;5112291;28;20191;-68
2022/01/29 09:16:08;;;;;;;5.20;2.25;;;7.20;33.30;;;;;;5112101;28;20185;-67
2022/01/29 09:18:36;;;;;;;5.50;2.72;;;7.30;33.80;;;;;;5112730;28;20196;-68
2022/01/29 09:21:04;;;;;;;3.72;1.85;;;7.40;34.60;;;;;;5112101;28;20219;-67
2022/01/29 09:23:31;;;;;;;4.47;3.30;;;7.40;34.10;;;;;;5112273;28;20223;-67
2022/01/29 09:25:58;;;;;;;8.45;3.90;;;7.60;34.80;;;;;;5115357;28;20249;-67
2022/01/29 09:28:26;;;;;;;5.75;3.25;;;7.70;34.50;;;;;;5115833;28;20216;-67
2022/01/29 09:30:54;;;;;;;4.15;3.08;;;7.70;33.40;;;;;;5116136;28;20192;-67
2022/01/29 09:33:21;;;;;;;2.60;1.30;;;7.80;32.90;;;;;;5115438;28;20184;-67
2022/01/29 09:35:48;;;;;;;5.45;3.40;;;7.80;31.50;;;;;;5114897;28;20184;-65
2022/01/29 09:38:16;;;;;;;6.95;3.35;;;7.80;31.60;;;;;;5113673;28;20184;-65
2022/01/29 09:40:44;;;;;;;4.95;2.40;;;7.90;31.30;;;;;;5114077;28;20212;-65
2022/01/29 09:43:12;;;;;;;2.97;1.40;;;7.90;30.60;;;;;;5115030;28;20188;-66
2022/01/29 09:45:43;;;;;;;4.60;1.60;;;7.90;30.30;;;;;;5115482;28;20196;-69
2022/01/29 09:48:12;;;;;;;2.15;1.15;;;8.00;30.60;;;;;;5115136;28;20219;-65
2022/01/29 09:50:40;;;;;;;2.50;1.70;;;8.10;31.10;;;;;;5115374;28;20700;-65
2022/01/29 09:53:08;;;;;;;1.70;1.00;;;8.10;30.20;;;;;;5115015;28;20188;-65
2022/01/29 09:55:36;;;;;;;2.13;1.15;;;8.10;30.00;;;;;;5115290;28;20249;-65
2022/01/29 09:58:03;;;;;;;1.70;0.93;;;8.10;29.80;;;;;;5114788;28;20183;-65
2022/01/29 10:00:31;;;;;;;1.83;0.77;;;8.00;29.90;;;;;;5115505;28;20606;-65
2022/01/29 10:03:19;;;;;;;2.70;1.00;;;8.00;30.00;;;;;;5114616;28;20191;-67
2022/01/29 10:05:49;;;;;;;2.50;1.52;;;8.00;29.70;;;;;;5115189;28;20224;-67
2022/01/29 10:08:17;;;;;;;2.28;1.17;;;8.00;30.00;;;;;;5114565;28;20188;-67
2022/01/29 10:10:46;;;;;;;2.92;1.35;;;7.90;29.80;;;;;;5115109;28;20237;-67
2022/01/29 10:13:27;;;;;;;2.58;1.27;;;7.90;30.00;;;;;;5115039;28;20185;-68
2022/01/29 10:16:05;;;;;;;2.60;2.20;;;7.90;29.70;;;;;;5115263;28;20196;-67
2022/01/29 10:18:35;;;;;;;2.25;1.50;;;7.90;29.50;;;;;;5115032;28;20188;-69
2022/01/29 10:21:14;;;;;;;1.80;0.90;;;7.90;30.00;;;;;;5114961;28;20212;-67
2022/01/29 10:23:43;;;;;;;1.90;1.10;;;7.90;29.50;;;;;;5114752;28;20213;-68
2022/01/29 10:26:10;;;;;;;2.22;0.93;;;7.90;29.60;;;;;;5114970;28;20193;-67
2022/01/29 10:28:39;;;;;;;1.88;0.60;;;7.90;29.70;;;;;;5113888;28;20266;-68
2022/01/29 10:31:07;;;;;;;2.15;0.80;;;7.80;29.40;;;;;;5114494;28;20569;-67
2022/01/29 10:33:39;;;;;;;1.70;0.90;;;7.80;29.40;;;;;;5113898;28;20192;-67
2022/01/29 10:36:07;;;;;;;1.70;0.70;;;7.80;29.70;;;;;;5115517;28;20192;-67
2022/01/29 10:38:50;;;;;;;2.30;1.40;;;7.80;28.80;;;;;;5115246;28;20646;-67
2022/01/29 10:41:22;;;;;;;1.73;0.80;;;7.80;29.20;;;;;;5114880;28;20220;-67
2022/01/29 10:44:15;;;;;;;2.35;1.00;;;7.80;29.50;;;;;;5115112;28;20266;-67
2022/01/29 10:46:45;;;;;;;1.73;0.80;;;7.80;29.70;;;;;;5111086;28;20188;-67
2022/01/29 10:49:29;;;;;;;4.40;0.70;;;7.80;29.60;;;;;;5115269;28;20196;-67
2022/01/29 10:51:58;;;;;;;2.90;0.90;;;7.80;29.20;;;;;;5115261;28;20268;-67
2022/01/29 10:54:26;;;;;;;2.92;0.80;;;7.90;29.30;;;;;;5112714;27;20639;-68
2022/01/29 10:57:04;;;;;;;1.98;0.70;;;8.00;28.60;;;;;;5110003;28;20256;-67
2022/01/29 10:59:34;;;;;;;1.65;0.73;;;8.00;28.10;;;;;;5112815;28;20225;-67
2022/01/29 11:02:02;;;;;;;2.05;0.82;;;8.00;28.00;;;;;;5112493;28;20212;-66
2022/01/29 11:04:32;;;;;;;1.65;0.70;;;8.00;27.90;;;;;;5113438;28;20192;-65
2022/01/29 11:07:04;;;;;;;4.65;2.03;;;8.00;28.00;;;;;;5112940;28;20555;-69
2022/01/29 11:09:31;;;;;;;5.72;2.45;;;8.10;27.20;;;;;;5114436;28;20241;-65
2022/01/29 11:12:02;;;;;;;2.22;1.35;;;8.20;27.70;;;;;;5110148;28;20200;-65
2022/01/29 11:14:31;;;;;;;3.42;1.25;;;8.30;28.00;;;;;;5113349;28;20215;-66
2022/01/29 11:17:00;;;;;;;4.72;2.33;;;8.30;27.50;;;;;;5111315;28;20223;-66
2022/01/29 11:19:32;;;;;;;3.58;2.70;;;8.40;27.00;;;;;;5112733;28;20296;-66
2022/01/29 11:22:06;;;;;;;2.00;1.00;;;8.50;27.20;;;;;;5113038;28;20315;-65
2022/01/29 11:24:36;;;;;;;3.10;1.13;;;8.50;26.90;;;;;;5112261;28;20188;-68
2022/01/29 11:27:04;;;;;;;3.15;1.02;;;8.60;26.60;;;;;;5112726;28;20223;-66
2022/01/29 11:29:36;;;;;;;1.60;0.70;;;8.70;27.80;;;;;;5112185;28;20188;-66
2022/01/29 11:32:29;;;;;;;4.18;0.90;;;8.80;26.80;;;;;;5111974;28;20188;-66
2022/01/29 11:35:09;;;;;;;1.92;0.95;;;8.90;27.40;;;;;;5102506;28;20231;-66
2022/01/29 11:37:54;;;;;;;3.58;1.20;;;9.00;26.90;;;;;;5112576;28;20196;-66
2022/01/29 11:40:25;;;;;;;1.70;0.80;;;9.00;27.00;;;;;;5111677;28;20192;-65
2022/01/29 11:43:18;;;;;;;2.70;0.90;;;9.10;27.00;;;;;;5111788;28;20215;-66
2022/01/29 11:45:51;;;;;;;3.97;1.10;;;9.10;26.90;;;;;;5112181;28;20225;-65
2022/01/29 11:48:54;;;;;;;1.60;0.80;;;9.20;26.90;;;;;;5112481;28;20192;-65
2022/01/29 11:51:47;;;;;;;2.58;0.90;;;9.30;26.20;;;;;;5113129;28;20203;-65
2022/01/29 11:54:20;;;;;;;4.10;1.00;;;9.40;26.50;;;;;;5103292;28;20260;-65
2022/01/29 11:56:48;;;;;;;9.10;4.20;;;9.40;26.40;;;;;;5112499;28;20577;-65
2022/01/29 11:59:34;;;;;;;8.13;3.50;;;9.50;26.00;;;;;;5112100;28;20192;-66
2022/01/29 12:02:24;;;;;;;13.57;9.60;;;9.70;26.10;;;;;;5112191;28;20230;-66
2022/01/29 12:05:07;;;;;;;5.05;2.90;;;9.90;26.20;;;;;;5112605;28;20192;-65
2022/01/29 12:07:40;;;;;;;4.43;3.42;;;10.10;24.20;;;;;;5112443;28;20253;-68
2022/01/29 12:10:12;;;;;;;3.47;2.85;;;10.80;24.40;;;;;;5111955;28;20241;-66
2022/01/29 12:12:41;;;;;;;3.00;2.10;;;12.60;24.70;;;;;;5112635;28;20210;-66
2022/01/29 12:15:37;;;;;;;2.10;0.90;;;15.50;23.90;;;;;;5109915;28;20200;-68
2022/01/29 12:18:08;;;;;;;2.97;0.80;;;18.70;20.90;;;;;;5109158;28;20794;-66
2022/01/29 12:20:37;;;;;;;2.57;1.17;;;20.30;19.20;;;;;;5112473;28;20434;-67
2022/01/29 12:23:09;;;;;;;4.90;1.20;;;21.90;17.70;;;;;;5111409;28;20564;-68
2022/01/29 12:25:39;;;;;;;2.37;0.90;;;23.90;17.10;;;;;;5112081;28;20442;-67
2022/01/29 12:28:07;;;;;;;2.50;1.00;;;25.70;14.90;;;;;;5112887;28;20556;-67
2022/01/29 12:30:37;;;;;;;2.53;1.40;;;27.00;14.60;;;;;;5112183;28;20875;-67
2022/01/29 12:33:06;;;;;;;4.00;1.00;;;28.20;12.90;;;;;;5109597;28;20786;-67
2022/01/29 12:35:39;;;;;;;2.50;1.00;;;28.80;12.00;;;;;;5112164;28;20430;-67
2022/01/29 12:38:09;;;;;;;1.70;0.73;;;29.10;11.50;;;;;;5111432;28;20541;-67
2022/01/29 12:40:55;;;;;;;3.90;3.50;;;29.30;10.80;;;;;;5111873;28;20503;-67
2022/01/29 12:43:30;;;;;;;3.23;1.50;;;29.60;10.70;;;;;;5111870;28;20433;-67
2022/01/29 12:46:29;;;;;;;2.83;2.10;;;29.70;10.50;;;;;;5112326;28;20434;-67
2022/01/29 12:49:06;;;;;;;3.10;1.87;;;29.80;9.60;;;;;;5112215;28;20435;-67
2022/01/29 12:51:35;;;;;;;2.10;0.97;;;29.70;9.80;;;;;;5112362;28;20916;-66
2022/01/29 12:54:05;;;;;;;1.80;0.77;;;29.90;9.50;;;;;;5111735;28;20438;-67
2022/01/29 12:56:36;;;;;;;2.20;0.70;;;29.80;9.40;;;;;;5112067;28;20432;-67
2022/01/29 12:59:05;;;;;;;1.80;0.90;;;29.60;9.10;;;;;;5112899;28;20775;-68
2022/01/29 13:01:34;;;;;;;2.20;0.80;;;29.50;9.20;;;;;;5115693;28;20489;-67
2022/01/29 13:04:02;;;;;;;1.70;0.70;;;29.40;8.90;;;;;;5115830;28;20477;-67
2022/01/29 13:06:30;;;;;;;3.57;0.77;;;29.20;9.00;;;;;;5115815;28;20446;-67
2022/01/29 13:09:13;;;;;;;1.40;0.50;;;28.90;8.80;;;;;;5115350;28;20434;-67
2022/01/29 13:11:43;;;;;;;2.90;0.70;;;28.40;8.50;;;;;;5115705;28;20430;-67
2022/01/29 13:14:17;;;;;;;1.70;0.70;;;28.00;8.30;;;;;;5115250;28;20438;-66
2022/01/29 13:16:46;;;;;;;1.97;0.80;;;27.70;8.40;;;;;;5115532;28;20437;-67